createdAt,value
2022-11-23T00:01:36.515Z,2.10
2022-11-23T00:04:08.031Z,2.00
2022-11-23T00:06:38.613Z,1.70
2022-11-23T00:09:07.064Z,2.03
2022-11-23T00:11:36.358Z,1.93
2022-11-23T00:14:04.578Z,2.37
2022-11-23T00:16:32.369Z,2.13
2022-11-23T00:19:02.388Z,2.00
2022-11-23T00:21:32.888Z,1.97
2022-11-23T00:24:00.857Z,2.30
2022-11-23T00:26:28.632Z,2.47
2022-11-23T00:28:56.248Z,2.37
2022-11-23T00:31:27.723Z,2.00
2022-11-23T00:33:57.660Z,2.30
2022-11-23T00:36:27.668Z,2.07
2022-11-23T00:38:55.667Z,2.37
2022-11-23T00:41:26.900Z,2.30
2022-11-23T00:43:54.665Z,2.47
2022-11-23T00:46:25.489Z,2.37
2022-11-23T00:48:55.408Z,2.40
2022-11-23T00:51:30.275Z,2.53
2022-11-23T00:53:59.415Z,2.50
2022-11-23T00:56:29.725Z,2.60
2022-11-23T00:58:59.310Z,2.50
2022-11-23T01:01:31.019Z,2.40
2022-11-23T01:04:00.386Z,2.40
2022-11-23T01:06:36.812Z,2.23
2022-11-23T01:09:14.271Z,2.23
2022-11-23T01:11:41.824Z,2.50
2022-11-23T01:14:09.310Z,2.20
2022-11-23T01:16:41.291Z,2.43
2022-11-23T01:19:17.446Z,2.40
2022-11-23T01:21:48.266Z,2.20
2022-11-23T01:24:22.317Z,2.80
2022-11-23T01:26:54.805Z,2.37
2022-11-23T01:29:25.983Z,2.27
2022-11-23T01:31:53.537Z,2.10
2022-11-23T01:34:22.306Z,1.90
2022-11-23T01:36:50.938Z,2.20
2022-11-23T01:39:18.508Z,2.67
2022-11-23T01:41:46.585Z,2.20
2022-11-23T01:44:33.977Z,2.07
2022-11-23T01:47:05.170Z,2.43
2022-11-23T01:49:42.815Z,2.30
2022-11-23T01:52:24.541Z,2.20
2022-11-23T01:55:00.597Z,2.67
2022-11-23T01:57:39.287Z,2.23
2022-11-23T02:00:08.369Z,2.53
2022-11-23T02:02:54.264Z,2.67
2022-11-23T02:05:31.202Z,2.27
2022-11-23T02:08:02.843Z,2.20
2022-11-23T02:10:32.255Z,2.23
2022-11-23T02:13:11.432Z,2.47
2022-11-23T02:15:39.897Z,2.40
2022-11-23T02:18:25.233Z,2.60
2022-11-23T02:20:54.497Z,2.60
2022-11-23T02:23:51.371Z,2.63
2022-11-23T02:26:26.394Z,2.70
2022-11-23T02:29:16.458Z,2.50
2022-11-23T02:31:44.017Z,2.30
2022-11-23T02:34:11.523Z,2.23
2022-11-23T02:36:41.646Z,2.70
2022-11-23T02:39:27.921Z,2.20
2022-11-23T02:41:56.591Z,2.43
2022-11-23T02:44:48.742Z,2.00
2022-11-23T02:47:16.933Z,2.53
2022-11-23T02:49:48.199Z,2.30
2022-11-23T02:52:18.316Z,2.43
2022-11-23T02:54:46.853Z,2.53
2022-11-23T02:57:14.983Z,2.20
2022-11-23T02:59:46.351Z,2.60
2022-11-23T03:02:13.948Z,2.40
2022-11-23T03:04:41.477Z,2.30
2022-11-23T03:07:09.182Z,2.37
2022-11-23T03:09:36.865Z,2.63
2022-11-23T03:12:04.594Z,2.50
2022-11-23T03:14:32.238Z,2.53
2022-11-23T03:17:00.739Z,2.60
2022-11-23T03:19:32.222Z,2.43
2022-11-23T03:22:00.138Z,2.50
2022-11-23T03:24:31.188Z,2.50
2022-11-23T03:26:59.881Z,2.43
2022-11-23T03:29:27.422Z,3.13
2022-11-23T03:31:57.539Z,3.00
2022-11-23T03:34:25.548Z,3.83
2022-11-23T03:36:53.065Z,3.37
2022-11-23T03:39:21.117Z,4.17
2022-11-23T03:42:08.998Z,4.07
2022-11-23T03:44:36.923Z,3.83
2022-11-23T03:47:05.688Z,4.20
2022-11-23T03:49:38.490Z,4.20
2022-11-23T03:52:06.147Z,4.00
2022-11-23T03:54:33.792Z,3.30
2022-11-23T03:57:01.297Z,3.70
2022-11-23T03:59:28.871Z,3.97
2022-11-23T04:02:02.213Z,4.20
2022-11-23T04:04:33.672Z,3.80
2022-11-23T04:07:25.094Z,4.60
2022-11-23T04:09:58.251Z,5.00
2022-11-23T04:12:46.356Z,4.87
2022-11-23T04:15:15.295Z,4.80
2022-11-23T04:17:43.419Z,4.20
2022-11-23T04:20:11.719Z,4.10
2022-11-23T04:22:39.346Z,3.73
2022-11-23T04:25:07.515Z,35.87
2022-11-23T04:27:35.037Z,34.83
2022-11-23T04:30:04.023Z,4.50
2022-11-23T04:32:31.962Z,5.73
2022-11-23T04:35:00.384Z,8.80
2022-11-23T04:37:28.237Z,9.20
2022-11-23T04:39:55.769Z,7.93
2022-11-23T04:42:46.066Z,8.00
2022-11-23T04:45:14.579Z,7.00
2022-11-23T04:47:43.575Z,6.60
2022-11-23T04:50:14.312Z,7.13
2022-11-23T04:52:45.461Z,6.63
2022-11-23T04:55:19.731Z,5.70
2022-11-23T04:57:55.578Z,6.50
2022-11-23T05:00:25.525Z,6.20
2022-11-23T05:02:55.718Z,7.10
2022-11-23T05:05:27.338Z,6.87
2022-11-23T05:07:56.678Z,8.10
2022-11-23T05:10:27.316Z,7.03
2022-11-23T05:12:59.049Z,7.57
2022-11-23T05:15:27.413Z,7.60
2022-11-23T05:18:00.314Z,8.13
2022-11-23T05:20:28.005Z,8.47
2022-11-23T05:22:55.544Z,8.57
2022-11-23T05:25:26.123Z,8.27
2022-11-23T05:28:16.547Z,7.83
2022-11-23T05:30:49.435Z,6.87
2022-11-23T05:33:17.022Z,6.63
2022-11-23T05:35:44.935Z,6.60
2022-11-23T05:38:12.602Z,7.10
2022-11-23T05:40:41.066Z,7.43
2022-11-23T05:43:10.250Z,7.30
2022-11-23T05:45:37.887Z,7.87
2022-11-23T05:48:06.492Z,6.47
2022-11-23T05:50:55.159Z,7.63
2022-11-23T05:53:29.034Z,7.60
2022-11-23T05:56:07.815Z,8.73
2022-11-23T05:58:43.009Z,8.37
2022-11-23T06:01:11.461Z,8.90
2022-11-23T06:03:40.225Z,7.27
2022-11-23T06:06:07.983Z,8.17
2022-11-23T06:08:40.578Z,7.43
2022-11-23T06:11:08.330Z,7.33
2022-11-23T06:13:35.846Z,6.80
2022-11-23T06:16:03.612Z,6.40
2022-11-23T06:18:44.293Z,6.90
2022-11-23T06:21:11.854Z,7.83
2022-11-23T06:23:39.363Z,6.83
2022-11-23T06:26:07.766Z,7.67
2022-11-23T06:28:37.140Z,6.33
2022-11-23T06:31:07.012Z,6.40
2022-11-23T06:33:35.691Z,6.73
2022-11-23T06:36:04.701Z,7.80
2022-11-23T06:38:38.591Z,7.40
2022-11-23T06:41:18.962Z,6.53
2022-11-23T06:43:48.750Z,6.30
2022-11-23T06:46:25.339Z,7.00
2022-11-23T06:48:52.860Z,7.83
2022-11-23T06:51:24.172Z,6.70
2022-11-23T06:53:52.706Z,12.07
2022-11-23T06:56:20.857Z,12.13
2022-11-23T06:58:48.321Z,8.80
2022-11-23T07:01:23.801Z,8.97
2022-11-23T07:03:59.747Z,7.60
2022-11-23T07:06:33.791Z,7.00
2022-11-23T07:09:09.281Z,8.57
2022-11-23T07:12:03.055Z,7.20
2022-11-23T07:14:30.599Z,6.87
2022-11-23T07:16:58.654Z,6.60
2022-11-23T07:19:26.250Z,8.30
2022-11-23T07:21:59.750Z,7.23
2022-11-23T07:24:27.467Z,7.33
2022-11-23T07:26:54.876Z,7.03
2022-11-23T07:29:22.686Z,7.70
2022-11-23T07:31:50.242Z,8.17
2022-11-23T07:34:17.841Z,8.17
2022-11-23T07:36:45.336Z,8.50
2022-11-23T07:39:14.475Z,6.63
2022-11-23T07:41:42.389Z,6.03
2022-11-23T07:44:42.253Z,6.93
2022-11-23T07:47:29.823Z,8.83
2022-11-23T07:49:57.321Z,7.83
2022-11-23T07:52:25.019Z,10.47
2022-11-23T07:54:52.568Z,8.80
2022-11-23T07:57:20.057Z,9.53
2022-11-23T07:59:47.605Z,7.90
2022-11-23T08:02:16.513Z,10.27
2022-11-23T08:04:44.198Z,10.37
2022-11-23T08:07:12.144Z,8.27
2022-11-23T08:09:39.726Z,9.13
2022-11-23T08:12:07.934Z,9.30
2022-11-23T08:14:35.708Z,7.93
2022-11-23T08:17:03.671Z,7.37
2022-11-23T08:19:31.194Z,7.83
2022-11-23T08:21:58.705Z,7.03
2022-11-23T08:24:26.257Z,7.43
2022-11-23T08:26:53.723Z,8.53
2022-11-23T08:29:21.334Z,9.43
2022-11-23T08:31:48.782Z,8.93
2022-11-23T08:34:18.031Z,8.40
2022-11-23T08:36:46.198Z,13.13
2022-11-23T08:39:14.880Z,12.67
2022-11-23T08:41:42.944Z,14.37
2022-11-23T08:44:11.436Z,10.47
2022-11-23T08:46:40.473Z,8.90
2022-11-23T08:49:08.123Z,14.50
2022-11-23T08:51:36.006Z,10.63
2022-11-23T08:54:03.518Z,12.03
2022-11-23T08:56:31.015Z,11.13
2022-11-23T08:58:58.481Z,13.20
2022-11-23T09:01:26.252Z,11.30
2022-11-23T09:03:55.022Z,9.07
2022-11-23T09:06:29.071Z,9.03
2022-11-23T09:08:57.132Z,8.83
2022-11-23T09:11:26.331Z,10.07
2022-11-23T09:13:54.017Z,10.53
2022-11-23T09:16:21.775Z,11.13
2022-11-23T09:18:50.139Z,10.27
2022-11-23T09:21:17.711Z,10.90
2022-11-23T09:23:45.304Z,9.97
2022-11-23T09:26:12.840Z,10.63
2022-11-23T09:28:44.758Z,9.60
2022-11-23T09:31:12.654Z,10.00
2022-11-23T09:33:40.096Z,9.60
2022-11-23T09:36:08.196Z,8.67
2022-11-23T09:38:55.650Z,13.70
2022-11-23T09:41:53.457Z,10.23
2022-11-23T09:44:54.419Z,10.20
2022-11-23T09:47:36.834Z,12.80
2022-11-23T09:50:33.665Z,10.67
2022-11-23T09:53:11.889Z,11.97
2022-11-23T09:55:49.465Z,9.60
2022-11-23T09:58:21.171Z,8.47
2022-11-23T10:00:59.631Z,10.73
2022-11-23T10:03:29.345Z,8.23
2022-11-23T10:06:20.581Z,11.17
2022-11-23T10:08:56.789Z,9.23
2022-11-23T10:12:01.756Z,9.40
2022-11-23T10:15:04.980Z,13.73
2022-11-23T10:18:05.844Z,8.27
2022-11-23T10:20:43.892Z,7.60
2022-11-23T10:23:34.553Z,8.03
2022-11-23T10:26:02.107Z,7.23
2022-11-23T10:28:32.949Z,7.20
2022-11-23T10:31:23.493Z,7.47
2022-11-23T10:34:10.825Z,8.33
2022-11-23T10:36:41.416Z,9.53
2022-11-23T10:39:21.858Z,8.90
2022-11-23T10:41:51.888Z,8.03
2022-11-23T10:44:29.207Z,8.70
2022-11-23T10:46:57.078Z,7.77
2022-11-23T10:49:33.586Z,8.60
2022-11-23T10:52:05.879Z,7.97
2022-11-23T10:54:36.481Z,8.20
2022-11-23T10:57:37.103Z,9.07
2022-11-23T11:00:17.957Z,9.23
2022-11-23T11:02:51.663Z,9.17
2022-11-23T11:08:20.810Z,7.73
2022-11-23T11:11:20.047Z,10.33
2022-11-23T11:13:49.492Z,30.57
2022-11-23T11:16:27.990Z,27.23
2022-11-23T11:18:56.479Z,11.20
2022-11-23T11:21:33.578Z,8.33
2022-11-23T11:24:14.213Z,6.33
2022-11-23T11:26:59.542Z,7.10
2022-11-23T11:29:39.062Z,26.17
2022-11-23T11:32:49.392Z,14.20
2022-11-23T11:35:42.953Z,9.67
2022-11-23T11:39:01.647Z,7.20
2022-11-23T11:41:36.169Z,6.93
2022-11-23T11:44:24.640Z,6.80
2022-11-23T11:47:00.612Z,7.37
2022-11-23T11:49:43.809Z,6.90
2022-11-23T11:52:24.981Z,7.03
2022-11-23T11:55:18.485Z,6.47
2022-11-23T11:57:56.521Z,7.07
2022-11-23T12:00:24.134Z,6.30
2022-11-23T12:03:22.023Z,6.30
2022-11-23T12:05:56.351Z,6.17
2022-11-23T12:09:07.624Z,6.53
2022-11-23T12:11:35.519Z,6.47
2022-11-23T12:14:09.382Z,6.20
2022-11-23T12:17:32.066Z,6.73
2022-11-23T12:20:29.032Z,7.10
2022-11-23T12:22:58.047Z,5.60
2022-11-23T12:25:36.771Z,5.77
2022-11-23T12:28:23.307Z,7.87
2022-11-23T12:31:11.902Z,16.37
2022-11-23T12:34:31.903Z,13.90
2022-11-23T12:37:22.349Z,6.13
2022-11-23T12:40:17.329Z,7.07
2022-11-23T12:42:55.045Z,6.47
2022-11-23T12:46:03.344Z,6.63
2022-11-23T12:49:06.594Z,9.63
2022-11-23T12:51:48.706Z,6.27
2022-11-23T12:54:48.132Z,6.07
2022-11-23T12:57:30.615Z,6.80
2022-11-23T13:00:18.525Z,5.57
2022-11-23T13:02:55.039Z,6.20
2022-11-23T13:05:40.639Z,5.23
2022-11-23T13:08:22.599Z,6.00
2022-11-23T13:11:19.234Z,5.50
2022-11-23T13:14:16.795Z,5.47
2022-11-23T13:17:22.168Z,5.80
2022-11-23T13:20:42.890Z,6.43
2022-11-23T13:23:10.666Z,7.27
2022-11-23T13:25:38.783Z,6.17
2022-11-23T13:28:31.589Z,6.20
2022-11-23T13:31:27.766Z,6.57
2022-11-23T13:34:01.768Z,6.10
2022-11-23T13:37:10.455Z,7.03
2022-11-23T13:39:57.224Z,6.17
2022-11-23T13:42:31.546Z,6.00
2022-11-23T13:45:39.825Z,6.47
2022-11-23T13:48:13.262Z,6.07
2022-11-23T13:50:49.682Z,6.03
2022-11-23T13:53:27.380Z,5.90
2022-11-23T13:56:15.346Z,6.37
2022-11-23T13:59:19.161Z,5.97
2022-11-23T14:02:08.461Z,6.30
2022-11-23T14:04:41.688Z,6.77
2022-11-23T14:07:47.581Z,5.67
2022-11-23T14:10:23.171Z,5.60
2022-11-23T14:13:18.558Z,6.23
2022-11-23T14:15:56.936Z,5.90
2022-11-23T14:19:04.387Z,6.37
2022-11-23T14:22:12.485Z,6.47
2022-11-23T14:25:17.399Z,5.80
2022-11-23T14:28:25.086Z,6.90
2022-11-23T14:31:21.000Z,6.33
2022-11-23T14:34:19.526Z,6.80
2022-11-23T14:37:14.469Z,6.73
2022-11-23T14:39:47.693Z,6.77
2022-11-23T14:42:20.800Z,7.50
2022-11-23T14:45:13.752Z,8.87
2022-11-23T14:47:42.988Z,9.40
2022-11-23T14:50:31.575Z,8.50
2022-11-23T14:53:11.818Z,9.57
2022-11-23T14:55:40.192Z,8.20
2022-11-23T14:58:12.139Z,9.50
2022-11-23T15:00:43.481Z,9.83
2022-11-23T15:06:18.012Z,8.50
2022-11-23T15:09:03.615Z,9.10
2022-11-23T15:11:34.044Z,9.97
2022-11-23T15:14:04.754Z,17.10
2022-11-23T15:16:42.759Z,10.60
2022-11-23T15:19:27.502Z,11.97
2022-11-23T15:21:56.816Z,9.70
2022-11-23T15:24:45.458Z,31.13
2022-11-23T15:27:22.358Z,188.87
2022-11-23T15:30:03.282Z,385.37
2022-11-23T15:32:34.740Z,132.10
2022-11-23T15:35:08.317Z,88.43
2022-11-23T15:37:48.899Z,79.90
2022-11-23T15:40:19.371Z,53.90
2022-11-23T15:42:50.994Z,50.87
2022-11-23T15:45:37.449Z,128.40
2022-11-23T15:48:12.280Z,174.30
2022-11-23T15:50:51.609Z,235.80
2022-11-23T15:53:22.562Z,192.53
2022-11-23T15:55:54.913Z,270.20
2022-11-23T15:58:25.424Z,119.23
2022-11-23T16:01:16.183Z,74.17
2022-11-23T16:03:58.412Z,310.87
2022-11-23T16:06:40.322Z,50.57
2022-11-23T16:09:51.238Z,86.17
2022-11-23T16:12:34.181Z,200.57
2022-11-23T16:15:49.603Z,388.13
2022-11-23T16:18:28.172Z,362.13
2022-11-23T16:21:04.128Z,279.30
2022-11-23T16:23:54.583Z,341.20
2022-11-23T16:26:34.526Z,118.87
2022-11-23T16:29:27.255Z,97.93
2022-11-23T16:32:03.790Z,93.23
2022-11-23T16:34:33.366Z,112.60
2022-11-23T16:37:06.099Z,124.50
2022-11-23T16:39:35.626Z,326.27
2022-11-23T16:42:04.800Z,147.77
2022-11-23T16:44:41.216Z,86.70
2022-11-23T16:47:31.098Z,101.60
2022-11-23T16:50:00.043Z,382.40
2022-11-23T16:52:29.393Z,116.47
2022-11-23T16:54:59.673Z,82.47
2022-11-23T16:57:59.931Z,67.67
2022-11-23T17:00:29.058Z,131.87
2022-11-23T17:03:00.113Z,130.63
2022-11-23T17:05:28.903Z,161.67
2022-11-23T17:08:02.028Z,82.97
2022-11-23T17:10:33.123Z,87.83
2022-11-23T17:13:04.481Z,54.17
2022-11-23T17:15:32.211Z,41.47
2022-11-23T17:18:01.173Z,44.57
2022-11-23T17:20:31.020Z,42.93
2022-11-23T17:23:03.392Z,38.50
2022-11-23T17:25:35.693Z,33.77
2022-11-23T17:28:22.110Z,35.70
2022-11-23T17:30:52.040Z,32.13
2022-11-23T17:33:22.739Z,28.67
2022-11-23T17:35:56.087Z,26.00
2022-11-23T17:38:27.158Z,30.37
2022-11-23T17:40:59.421Z,37.33
2022-11-23T17:43:31.465Z,26.90
2022-11-23T17:46:04.241Z,23.73
2022-11-23T17:48:42.136Z,22.37
2022-11-23T17:51:16.348Z,41.80
2022-11-23T17:53:45.953Z,30.13
2022-11-23T17:56:24.223Z,41.57
2022-11-23T17:59:01.641Z,48.70
2022-11-23T18:01:33.130Z,55.90
2022-11-23T18:04:05.122Z,49.13
2022-11-23T18:06:37.053Z,46.47
2022-11-23T18:09:08.017Z,49.20
2022-11-23T18:11:38.506Z,56.20
2022-11-23T18:14:10.212Z,56.20
2022-11-23T18:16:40.127Z,57.20
2022-11-23T18:19:15.088Z,60.30
2022-11-23T18:21:43.965Z,62.80
2022-11-23T18:24:22.511Z,62.20
2022-11-23T18:26:52.322Z,60.97
2022-11-23T18:29:25.386Z,62.03
2022-11-23T18:31:57.417Z,62.57
2022-11-23T18:34:28.178Z,64.27
2022-11-23T18:36:59.055Z,77.33
2022-11-23T18:39:51.413Z,78.40
2022-11-23T18:42:25.341Z,73.33
2022-11-23T18:44:57.974Z,65.87
2022-11-23T18:47:30.082Z,64.03
2022-11-23T18:50:06.667Z,60.07
2022-11-23T18:52:35.696Z,61.17
2022-11-23T18:55:07.331Z,59.87
2022-11-23T18:57:43.852Z,56.57
2022-11-23T19:00:30.634Z,55.90
2022-11-23T19:03:22.850Z,47.43
2022-11-23T19:05:54.511Z,43.20
2022-11-23T19:08:27.082Z,42.80
2022-11-23T19:10:56.885Z,37.13
2022-11-23T19:13:31.226Z,39.27
2022-11-23T19:16:03.036Z,39.17
2022-11-23T19:18:41.456Z,38.77
2022-11-23T19:21:22.720Z,39.10
2022-11-23T19:23:56.454Z,45.63
2022-11-23T19:26:30.204Z,57.60
2022-11-23T19:29:05.327Z,52.33
2022-11-23T19:31:35.415Z,54.20
2022-11-23T19:34:12.833Z,62.47
2022-11-23T19:36:43.071Z,62.30
2022-11-23T19:39:11.356Z,50.07
2022-11-23T19:41:39.792Z,53.17
2022-11-23T19:44:09.364Z,50.60
2022-11-23T19:46:37.292Z,44.77
2022-11-23T19:49:07.259Z,45.47
2022-11-23T19:51:39.316Z,44.97
2022-11-23T19:54:10.288Z,44.70
2022-11-23T19:56:38.333Z,42.80
2022-11-23T19:59:06.562Z,41.43
2022-11-23T20:01:34.495Z,39.87
2022-11-23T20:04:09.736Z,38.70
2022-11-23T20:06:42.513Z,39.07
2022-11-23T20:09:22.860Z,39.57
2022-11-23T20:11:51.834Z,39.17
2022-11-23T20:14:21.533Z,35.67
2022-11-23T20:16:51.131Z,37.97
2022-11-23T20:19:21.186Z,37.40
2022-11-23T20:21:50.907Z,44.57
2022-11-23T20:24:18.545Z,44.13
2022-11-23T20:26:48.398Z,46.37
2022-11-23T20:29:17.299Z,49.47
2022-11-23T20:31:45.061Z,47.73
2022-11-23T20:34:16.914Z,44.00
2022-11-23T20:36:48.379Z,40.97
2022-11-23T20:39:16.745Z,39.00
2022-11-23T20:41:45.335Z,45.20
2022-11-23T20:44:15.527Z,43.43
2022-11-23T20:49:33.415Z,80.43
2022-11-23T20:52:02.605Z,56.70
2022-11-23T20:54:30.201Z,54.50
2022-11-23T20:57:03.113Z,46.97
2022-11-23T20:59:33.089Z,37.23
2022-11-23T21:02:01.092Z,32.47
2022-11-23T21:04:28.795Z,29.20
2022-11-23T21:06:56.379Z,27.80
2022-11-23T21:09:24.008Z,24.20
2022-11-23T21:12:10.015Z,22.93
2022-11-23T21:14:38.073Z,23.63
2022-11-23T21:17:06.665Z,24.97
2022-11-23T21:19:37.751Z,21.30
2022-11-23T21:22:15.294Z,18.57
2022-11-23T21:24:45.408Z,17.47
2022-11-23T21:27:14.024Z,17.87
2022-11-23T21:29:44.109Z,19.23
2022-11-23T21:32:14.778Z,19.90
2022-11-23T21:34:44.981Z,18.03
2022-11-23T21:37:13.156Z,18.90
2022-11-23T21:39:47.921Z,19.93
2022-11-23T21:42:18.809Z,19.47
2022-11-23T21:44:46.454Z,15.67
2022-11-23T21:47:14.959Z,13.67
2022-11-23T21:49:43.634Z,14.40
2022-11-23T21:52:11.172Z,14.13
2022-11-23T21:54:38.823Z,14.13
2022-11-23T21:57:06.376Z,12.80
2022-11-23T21:59:33.905Z,13.70
2022-11-23T22:02:04.744Z,13.63
2022-11-23T22:04:32.384Z,14.03
2022-11-23T22:07:00.147Z,14.87
2022-11-23T22:09:28.130Z,16.57
2022-11-23T22:11:55.845Z,17.53
2022-11-23T22:14:23.362Z,18.87
2022-11-23T22:16:51.248Z,18.30
2022-11-23T22:19:19.091Z,18.23
2022-11-23T22:21:47.623Z,16.83
2022-11-23T22:24:22.281Z,13.97
2022-11-23T22:26:49.790Z,14.13
2022-11-23T22:29:17.424Z,14.63
2022-11-23T22:31:45.216Z,13.93
2022-11-23T22:34:14.793Z,11.70
2022-11-23T22:36:43.255Z,13.23
2022-11-23T22:39:11.154Z,13.20
2022-11-23T22:41:39.716Z,13.03
2022-11-23T22:44:10.090Z,13.00
2022-11-23T22:46:40.078Z,14.10
2022-11-23T22:49:07.943Z,13.60
2022-11-23T22:51:36.027Z,17.40
2022-11-23T22:54:04.525Z,15.87
2022-11-23T22:56:32.745Z,14.73
2022-11-23T22:59:00.626Z,17.97
2022-11-23T23:01:30.867Z,17.07
2022-11-23T23:04:01.899Z,16.13
2022-11-23T23:06:36.056Z,14.80
2022-11-23T23:09:07.242Z,15.97
2022-11-23T23:11:36.022Z,14.57
2022-11-23T23:14:03.782Z,15.83
2022-11-23T23:16:31.540Z,16.10
2022-11-23T23:18:59.893Z,15.37
2022-11-23T23:21:30.717Z,15.47
2022-11-23T23:24:01.299Z,17.53
2022-11-23T23:26:29.880Z,18.20
2022-11-23T23:29:00.382Z,18.43
2022-11-23T23:31:29.967Z,18.73
2022-11-23T23:33:59.117Z,17.77
2022-11-23T23:36:26.640Z,17.57
2022-11-23T23:38:54.272Z,17.23
2022-11-23T23:41:22.060Z,16.60
2022-11-23T23:43:49.661Z,16.57
2022-11-23T23:46:17.729Z,15.90
2022-11-23T23:48:45.528Z,17.23
2022-11-23T23:51:22.401Z,17.97
2022-11-23T23:53:51.390Z,20.90
2022-11-23T23:56:27.336Z,22.30
2022-11-23T23:59:00.231Z,17.73
